createdAt,value
2022-11-16T00:02:43.870Z,88.84
2022-11-16T00:07:43.347Z,88.83
2022-11-16T00:12:43.025Z,88.85
2022-11-16T00:17:41.784Z,88.84
2022-11-16T00:22:42.086Z,88.85
2022-11-16T00:27:41.414Z,88.85
2022-11-16T00:32:40.899Z,88.86
2022-11-16T00:37:40.020Z,88.87
2022-11-16T00:42:39.128Z,88.87
2022-11-16T00:47:37.914Z,88.89
2022-11-16T00:52:36.645Z,88.88
2022-11-16T00:57:36.633Z,88.88
2022-11-16T01:02:36.684Z,88.89
2022-11-16T01:07:37.903Z,88.88
2022-11-16T01:12:37.647Z,88.86
2022-11-16T01:17:36.816Z,88.86
2022-11-16T01:22:38.151Z,88.86
2022-11-16T01:27:37.609Z,88.85
2022-11-16T01:32:37.951Z,88.85
2022-11-16T01:37:37.613Z,88.85
2022-11-16T01:42:37.033Z,88.84
2022-11-16T01:47:35.700Z,88.83
2022-11-16T01:52:39.317Z,88.84
2022-11-16T01:57:45.178Z,88.83
2022-11-16T02:02:45.539Z,88.83
2022-11-16T02:08:37.208Z,88.82
2022-11-16T02:13:59.701Z,88.82
2022-11-16T02:19:25.029Z,88.82
2022-11-16T02:24:44.906Z,88.81
2022-11-16T02:29:49.798Z,88.79
2022-11-16T02:34:56.020Z,88.79
2022-11-16T02:40:02.483Z,88.79
2022-11-16T02:45:04.610Z,88.78
2022-11-16T02:50:11.659Z,88.77
2022-11-16T02:55:13.214Z,88.78
2022-11-16T03:00:22.842Z,88.79
2022-11-16T03:05:33.218Z,88.80
2022-11-16T03:10:57.420Z,88.79
2022-11-16T03:16:01.212Z,88.79
2022-11-16T03:21:11.955Z,88.78
2022-11-16T03:26:16.253Z,88.79
2022-11-16T03:31:23.067Z,88.78
2022-11-16T03:36:28.815Z,88.77
2022-11-16T03:41:32.428Z,88.75
2022-11-16T03:46:33.879Z,88.77
2022-11-16T03:51:32.413Z,88.77
2022-11-16T03:56:31.850Z,88.78
2022-11-16T04:01:31.120Z,88.78
2022-11-16T04:06:48.619Z,88.79
2022-11-16T04:12:04.824Z,88.79
2022-11-16T04:17:21.507Z,88.80
2022-11-16T04:22:58.638Z,88.81
2022-11-16T04:28:14.636Z,88.82
2022-11-16T04:33:42.701Z,88.82
2022-11-16T04:38:41.515Z,88.81
2022-11-16T04:43:40.056Z,88.83
2022-11-16T04:48:39.441Z,88.83
2022-11-16T04:53:38.579Z,88.82
2022-11-16T04:58:45.444Z,88.83
2022-11-16T05:03:44.749Z,88.82
2022-11-16T05:08:43.566Z,88.79
2022-11-16T05:13:43.429Z,88.79
2022-11-16T05:18:42.996Z,88.80
2022-11-16T05:24:09.001Z,88.83
2022-11-16T05:29:08.764Z,88.86
2022-11-16T05:34:09.688Z,88.86
2022-11-16T05:39:10.755Z,88.87
2022-11-16T05:44:10.977Z,88.89
2022-11-16T05:49:27.608Z,88.91
2022-11-16T05:54:54.150Z,88.92
2022-11-16T06:00:08.649Z,88.90
2022-11-16T06:10:51.043Z,88.93
2022-11-16T06:15:50.649Z,88.95
2022-11-16T06:20:52.755Z,88.97
2022-11-16T06:25:56.564Z,89.02
2022-11-16T06:30:58.112Z,89.05
2022-11-16T06:35:57.647Z,89.05
2022-11-16T06:41:04.140Z,89.07
2022-11-16T06:46:04.658Z,89.07
2022-11-16T06:51:04.432Z,89.08
2022-11-16T06:56:28.890Z,89.10
2022-11-16T07:01:29.666Z,89.12
2022-11-16T07:06:34.599Z,89.14
2022-11-16T07:11:35.008Z,89.16
2022-11-16T07:16:35.686Z,89.19
2022-11-16T07:21:35.640Z,89.21
2022-11-16T07:26:41.489Z,89.22
2022-11-16T07:31:44.841Z,89.22
2022-11-16T07:37:04.959Z,89.23
2022-11-16T07:42:06.359Z,89.23
2022-11-16T07:47:25.612Z,89.21
2022-11-16T07:52:25.025Z,89.23
2022-11-16T07:57:32.802Z,89.25
2022-11-16T08:02:34.415Z,89.26
2022-11-16T08:07:34.542Z,89.26
2022-11-16T08:12:34.819Z,89.26
2022-11-16T08:17:33.643Z,89.29
2022-11-16T08:22:35.223Z,89.28
2022-11-16T08:27:36.297Z,89.27
2022-11-16T08:32:35.904Z,89.21
2022-11-16T08:43:11.321Z,89.15
2022-11-16T08:48:11.604Z,89.10
2022-11-16T08:53:11.179Z,89.10
2022-11-16T08:58:13.295Z,89.04
2022-11-16T09:03:11.903Z,88.99
2022-11-16T09:08:12.189Z,89.00
2022-11-16T09:13:10.705Z,88.98
2022-11-16T09:18:09.799Z,88.93
2022-11-16T09:23:09.013Z,88.86
2022-11-16T09:28:08.826Z,88.86
2022-11-16T09:33:08.367Z,88.82
2022-11-16T09:38:10.119Z,88.80
2022-11-16T09:43:25.200Z,88.82
2022-11-16T09:48:27.026Z,88.78
2022-11-16T09:53:37.829Z,88.83
2022-11-16T09:58:45.462Z,88.81
2022-11-16T10:03:50.775Z,88.72
2022-11-16T10:08:52.953Z,88.72
2022-11-16T10:14:04.444Z,88.61
2022-11-16T10:19:15.951Z,88.55
2022-11-16T10:24:57.897Z,88.36
2022-11-16T10:30:09.325Z,88.25
2022-11-16T10:35:20.239Z,88.10
2022-11-16T10:40:26.328Z,87.96
2022-11-16T10:45:34.338Z,87.82
2022-11-16T10:50:42.261Z,87.69
2022-11-16T10:55:41.874Z,87.56
2022-11-16T11:00:48.373Z,87.44
2022-11-16T11:05:57.364Z,87.28
2022-11-16T11:11:24.278Z,87.14
2022-11-16T11:16:23.409Z,87.03
2022-11-16T11:21:27.518Z,86.91
2022-11-16T11:26:42.351Z,86.87
2022-11-16T11:31:47.084Z,86.75
2022-11-16T11:36:52.796Z,86.66
2022-11-16T11:42:07.629Z,86.53
2022-11-16T11:47:56.130Z,86.44
2022-11-16T11:52:54.153Z,86.31
2022-11-16T11:57:57.108Z,86.11
2022-11-16T12:03:38.778Z,85.89
2022-11-16T12:09:02.329Z,85.50
2022-11-16T12:14:19.384Z,85.49
2022-11-16T12:19:50.148Z,85.37
2022-11-16T12:25:16.384Z,85.43
2022-11-16T12:30:21.307Z,85.49
2022-11-16T12:35:43.078Z,85.40
2022-11-16T12:41:02.427Z,85.51
2022-11-16T12:46:18.421Z,85.52
2022-11-16T12:51:33.649Z,85.62
2022-11-16T12:56:49.279Z,85.75
2022-11-16T13:02:03.532Z,85.84
2022-11-16T13:07:11.439Z,85.95
2022-11-16T13:12:17.329Z,86.04
2022-11-16T13:17:25.669Z,86.12
2022-11-16T13:22:30.774Z,86.15
2022-11-16T13:27:41.103Z,86.20
2022-11-16T13:33:06.738Z,86.27
2022-11-16T13:38:05.966Z,86.30
2022-11-16T13:43:19.095Z,86.40
2022-11-16T13:48:26.084Z,86.45
2022-11-16T13:54:25.183Z,86.50
2022-11-16T13:58:55.710Z,86.56
2022-11-16T14:04:35.384Z,86.63
2022-11-16T14:09:52.174Z,86.68
2022-11-16T14:15:21.056Z,86.73
2022-11-16T14:20:30.979Z,86.73
2022-11-16T14:25:47.146Z,86.74
2022-11-16T14:31:02.224Z,86.79
2022-11-16T14:36:03.638Z,86.80
2022-11-16T14:41:07.781Z,86.79
2022-11-16T14:46:11.477Z,86.80
2022-11-16T14:51:14.951Z,86.80
2022-11-16T14:56:17.135Z,86.80
2022-11-16T15:01:21.733Z,86.81
2022-11-16T15:06:22.665Z,86.82
2022-11-16T15:11:46.614Z,86.84
2022-11-16T15:16:57.170Z,86.83
2022-11-16T15:21:59.310Z,86.86
2022-11-16T15:27:03.371Z,86.86
2022-11-16T15:32:02.418Z,86.87
2022-11-16T15:37:01.670Z,86.92
2022-11-16T15:42:04.010Z,86.95
2022-11-16T15:47:04.567Z,86.99
2022-11-16T15:52:06.265Z,87.04
2022-11-16T15:57:13.823Z,87.06
2022-11-16T16:02:24.724Z,87.06
2022-11-16T16:07:44.972Z,87.10
2022-11-16T16:12:54.943Z,87.14
2022-11-16T16:17:55.312Z,87.16
2022-11-16T16:23:06.189Z,87.19
2022-11-16T16:28:06.086Z,87.22
2022-11-16T16:33:05.354Z,87.25
2022-11-16T16:38:04.606Z,87.25
2022-11-16T16:43:03.821Z,87.25
2022-11-16T16:48:02.798Z,87.26
2022-11-16T16:53:01.551Z,87.24
2022-11-16T16:58:00.805Z,87.22
2022-11-16T17:03:00.100Z,87.22
2022-11-16T17:08:01.139Z,87.19
2022-11-16T17:13:02.753Z,87.18
2022-11-16T17:18:05.609Z,87.12
2022-11-16T17:23:05.348Z,87.11
2022-11-16T17:28:04.242Z,87.06
2022-11-16T17:33:03.165Z,86.99
2022-11-16T17:38:02.636Z,86.96
2022-11-16T17:43:01.567Z,86.95
2022-11-16T17:48:01.313Z,86.91
2022-11-16T17:53:01.077Z,86.90
2022-11-16T17:58:07.171Z,86.83
2022-11-16T18:03:06.998Z,86.75
2022-11-16T18:08:06.439Z,86.77
2022-11-16T18:13:06.020Z,86.75
2022-11-16T18:18:06.392Z,86.78
2022-11-16T18:23:09.012Z,86.78
2022-11-16T18:28:08.010Z,86.79
2022-11-16T18:33:07.209Z,86.77
2022-11-16T18:38:07.430Z,86.71
2022-11-16T18:43:06.800Z,86.71
2022-11-16T18:48:07.708Z,86.71
2022-11-16T18:53:06.813Z,86.71
2022-11-16T18:58:22.581Z,86.66
2022-11-16T19:03:24.013Z,86.63
2022-11-16T19:08:23.373Z,86.60
2022-11-16T19:13:22.506Z,86.56
2022-11-16T19:18:22.317Z,86.57
2022-11-16T19:23:21.275Z,86.58
2022-11-16T19:28:20.830Z,86.55
2022-11-16T19:33:21.456Z,86.51
2022-11-16T19:38:24.257Z,86.48
2022-11-16T19:43:23.685Z,86.48
2022-11-16T19:48:22.771Z,86.42
2022-11-16T19:53:21.930Z,86.40
2022-11-16T19:58:21.000Z,86.38
2022-11-16T20:03:20.268Z,86.29
2022-11-16T20:08:19.980Z,86.33
2022-11-16T20:13:19.141Z,86.29
2022-11-16T20:18:18.239Z,86.27
2022-11-16T20:23:19.628Z,86.27
2022-11-16T20:28:19.289Z,86.19
2022-11-16T20:33:17.992Z,86.07
2022-11-16T20:38:19.897Z,86.04
2022-11-16T20:43:19.308Z,86.06
2022-11-16T20:48:18.814Z,85.99
2022-11-16T20:53:18.955Z,85.95
2022-11-16T20:58:22.792Z,85.98
2022-11-16T21:03:22.050Z,85.99
2022-11-16T21:08:21.572Z,85.91
2022-11-16T21:13:53.595Z,85.92
2022-11-16T21:18:52.161Z,85.90
2022-11-16T21:23:52.654Z,85.88
2022-11-16T21:28:52.325Z,85.82
2022-11-16T21:33:52.964Z,85.81
2022-11-16T21:38:52.491Z,85.78
2022-11-16T21:43:52.132Z,85.81
2022-11-16T21:48:57.316Z,85.70
2022-11-16T21:53:57.433Z,85.68
2022-11-16T21:58:56.953Z,85.62
2022-11-16T22:04:21.744Z,85.62
2022-11-16T22:09:20.473Z,85.52
2022-11-16T22:14:19.357Z,85.36
2022-11-16T22:19:18.325Z,85.13
2022-11-16T22:24:17.076Z,85.02
2022-11-16T22:29:16.455Z,85.13
2022-11-16T22:34:15.337Z,85.10
2022-11-16T22:39:14.854Z,84.92
2022-11-16T22:44:13.712Z,84.98
2022-11-16T22:49:12.549Z,84.91
2022-11-16T22:54:15.677Z,84.84
2022-11-16T22:59:14.353Z,84.69
2022-11-16T23:04:13.030Z,84.69
2022-11-16T23:09:12.131Z,84.76
2022-11-16T23:14:40.811Z,84.79
2022-11-16T23:19:57.418Z,84.79
2022-11-16T23:25:16.942Z,84.65
2022-11-16T23:30:17.795Z,84.58
2022-11-16T23:35:16.621Z,84.57
2022-11-16T23:40:17.349Z,84.32
2022-11-16T23:45:16.741Z,84.19
2022-11-16T23:50:20.539Z,84.11
2022-11-16T23:55:20.089Z,84.09
